sensor_id;sensor_type;location;lat;lon;timestamp;temperature;humidity
83466;DHT22;73393;51.946;20.140;2024-02-26T00:01:39;2.10;95.40
83466;DHT22;73393;51.946;20.140;2024-02-26T00:04:05;2.10;95.50
83466;DHT22;73393;51.946;20.140;2024-02-26T00:06:31;2.10;96.30
83466;DHT22;73393;51.946;20.140;2024-02-26T00:08:57;2.20;96.50
83466;DHT22;73393;51.946;20.140;2024-02-26T00:11:23;2.20;97.40
83466;DHT22;73393;51.946;20.140;2024-02-26T00:13:49;2.20;97.40
83466;DHT22;73393;51.946;20.140;2024-02-26T00:16:14;2.20;97.20
83466;DHT22;73393;51.946;20.140;2024-02-26T00:18:40;2.20;97.20
83466;DHT22;73393;51.946;20.140;2024-02-26T00:21:06;2.20;96.10
83466;DHT22;73393;51.946;20.140;2024-02-26T00:23:31;2.20;96.50
83466;DHT22;73393;51.946;20.140;2024-02-26T00:25:57;2.20;97.10
83466;DHT22;73393;51.946;20.140;2024-02-26T00:28:23;2.20;96.60
83466;DHT22;73393;51.946;20.140;2024-02-26T00:30:50;2.20;97.30
83466;DHT22;73393;51.946;20.140;2024-02-26T00:33:17;2.20;96.80
83466;DHT22;73393;51.946;20.140;2024-02-26T00:35:43;2.10;97.10
83466;DHT22;73393;51.946;20.140;2024-02-26T00:38:08;2.20;97.80
83466;DHT22;73393;51.946;20.140;2024-02-26T00:40:35;2.30;100.00
83466;DHT22;73393;51.946;20.140;2024-02-26T00:43:01;2.30;100.00
83466;DHT22;73393;51.946;20.140;2024-02-26T00:45:27;2.50;100.00
83466;DHT22;73393;51.946;20.140;2024-02-26T00:47:52;2.50;100.00
83466;DHT22;73393;51.946;20.140;2024-02-26T00:50:18;2.60;100.00
83466;DHT22;73393;51.946;20.140;2024-02-26T00:52:44;2.70;100.00
83466;DHT22;73393;51.946;20.140;2024-02-26T00:55:09;2.70;100.00
83466;DHT22;73393;51.946;20.140;2024-02-26T00:57:35;2.70;100.00
83466;DHT22;73393;51.946;20.140;2024-02-26T01:00:00;2.80;100.00
83466;DHT22;73393;51.946;20.140;2024-02-26T01:02:26;2.80;100.00
83466;DHT22;73393;51.946;20.140;2024-02-26T01:04:52;2.80;100.00
83466;DHT22;73393;51.946;20.140;2024-02-26T01:07:18;2.80;100.00
83466;DHT22;73393;51.946;20.140;2024-02-26T01:09:44;2.70;100.00
83466;DHT22;73393;51.946;20.140;2024-02-26T01:12:09;2.60;100.00
83466;DHT22;73393;51.946;20.140;2024-02-26T01:14:35;2.50;100.00
83466;DHT22;73393;51.946;20.140;2024-02-26T01:17:00;2.50;100.00
83466;DHT22;73393;51.946;20.140;2024-02-26T01:19:26;2.50;100.00
83466;DHT22;73393;51.946;20.140;2024-02-26T01:21:51;2.50;100.00
83466;DHT22;73393;51.946;20.140;2024-02-26T01:24:17;2.40;100.00
83466;DHT22;73393;51.946;20.140;2024-02-26T01:26:43;2.40;100.00
83466;DHT22;73393;51.946;20.140;2024-02-26T01:29:08;2.30;100.00
83466;DHT22;73393;51.946;20.140;2024-02-26T01:31:34;2.30;100.00
83466;DHT22;73393;51.946;20.140;2024-02-26T01:34:00;2.20;100.00
83466;DHT22;73393;51.946;20.140;2024-02-26T01:36:26;2.20;100.00
83466;DHT22;73393;51.946;20.140;2024-02-26T01:38:51;2.10;100.00
83466;DHT22;73393;51.946;20.140;2024-02-26T01:41:17;2.00;100.00
83466;DHT22;73393;51.946;20.140;2024-02-26T01:43:42;2.00;100.00
83466;DHT22;73393;51.946;20.140;2024-02-26T01:46:12;2.00;100.00
83466;DHT22;73393;51.946;20.140;2024-02-26T01:48:40;1.90;100.00
83466;DHT22;73393;51.946;20.140;2024-02-26T01:51:06;1.90;100.00
83466;DHT22;73393;51.946;20.140;2024-02-26T01:53:31;1.80;100.00
83466;DHT22;73393;51.946;20.140;2024-02-26T01:55:58;1.80;100.00
83466;DHT22;73393;51.946;20.140;2024-02-26T01:58:23;1.80;100.00
83466;DHT22;73393;51.946;20.140;2024-02-26T02:03:24;1.70;100.00
83466;DHT22;73393;51.946;20.140;2024-02-26T02:05:50;1.70;100.00
83466;DHT22;73393;51.946;20.140;2024-02-26T02:08:16;1.60;100.00
83466;DHT22;73393;51.946;20.140;2024-02-26T02:10:42;1.60;100.00
83466;DHT22;73393;51.946;20.140;2024-02-26T02:13:08;1.60;100.00
83466;DHT22;73393;51.946;20.140;2024-02-26T02:15:33;1.50;100.00
83466;DHT22;73393;51.946;20.140;2024-02-26T02:17:59;1.50;100.00
83466;DHT22;73393;51.946;20.140;2024-02-26T02:20:32;1.50;100.00
83466;DHT22;73393;51.946;20.140;2024-02-26T02:22:58;1.40;100.00
83466;DHT22;73393;51.946;20.140;2024-02-26T02:25:23;1.40;100.00
83466;DHT22;73393;51.946;20.140;2024-02-26T02:27:51;1.60;100.00
83466;DHT22;73393;51.946;20.140;2024-02-26T02:30:17;1.50;100.00
83466;DHT22;73393;51.946;20.140;2024-02-26T02:32:43;1.60;100.00
83466;DHT22;73393;51.946;20.140;2024-02-26T02:35:08;1.60;100.00
83466;DHT22;73393;51.946;20.140;2024-02-26T02:37:34;1.50;100.00
83466;DHT22;73393;51.946;20.140;2024-02-26T02:40:00;1.50;100.00
83466;DHT22;73393;51.946;20.140;2024-02-26T02:42:26;1.40;100.00
83466;DHT22;73393;51.946;20.140;2024-02-26T02:44:51;1.30;100.00
83466;DHT22;73393;51.946;20.140;2024-02-26T02:47:17;1.30;100.00
83466;DHT22;73393;51.946;20.140;2024-02-26T02:49:42;1.30;100.00
83466;DHT22;73393;51.946;20.140;2024-02-26T02:52:08;1.30;100.00
83466;DHT22;73393;51.946;20.140;2024-02-26T02:54:34;1.30;100.00
83466;DHT22;73393;51.946;20.140;2024-02-26T02:56:59;1.30;100.00
83466;DHT22;73393;51.946;20.140;2024-02-26T02:59:25;1.30;100.00
83466;DHT22;73393;51.946;20.140;2024-02-26T03:01:51;1.20;100.00
83466;DHT22;73393;51.946;20.140;2024-02-26T03:04:17;1.20;100.00
83466;DHT22;73393;51.946;20.140;2024-02-26T03:06:43;1.20;100.00
83466;DHT22;73393;51.946;20.140;2024-02-26T03:09:08;1.20;100.00
83466;DHT22;73393;51.946;20.140;2024-02-26T03:11:34;1.10;100.00
83466;DHT22;73393;51.946;20.140;2024-02-26T03:14:00;1.10;100.00
83466;DHT22;73393;51.946;20.140;2024-02-26T03:16:25;1.10;100.00
83466;DHT22;73393;51.946;20.140;2024-02-26T03:18:52;1.10;100.00
83466;DHT22;73393;51.946;20.140;2024-02-26T03:21:18;1.10;100.00
83466;DHT22;73393;51.946;20.140;2024-02-26T03:23:43;1.10;100.00
83466;DHT22;73393;51.946;20.140;2024-02-26T03:26:09;1.00;100.00
83466;DHT22;73393;51.946;20.140;2024-02-26T03:28:39;1.00;100.00
83466;DHT22;73393;51.946;20.140;2024-02-26T03:31:04;1.00;100.00
83466;DHT22;73393;51.946;20.140;2024-02-26T03:33:30;1.00;100.00
83466;DHT22;73393;51.946;20.140;2024-02-26T03:35:55;1.00;100.00
83466;DHT22;73393;51.946;20.140;2024-02-26T03:38:21;1.00;100.00
83466;DHT22;73393;51.946;20.140;2024-02-26T03:40:47;1.00;100.00
83466;DHT22;73393;51.946;20.140;2024-02-26T03:43:12;0.90;100.00
83466;DHT22;73393;51.946;20.140;2024-02-26T03:45:38;0.90;100.00
83466;DHT22;73393;51.946;20.140;2024-02-26T03:48:04;0.90;100.00
83466;DHT22;73393;51.946;20.140;2024-02-26T03:50:29;0.90;100.00
83466;DHT22;73393;51.946;20.140;2024-02-26T03:52:56;0.90;100.00
83466;DHT22;73393;51.946;20.140;2024-02-26T03:55:23;0.80;100.00
83466;DHT22;73393;51.946;20.140;2024-02-26T03:57:54;0.80;100.00
83466;DHT22;73393;51.946;20.140;2024-02-26T04:00:19;0.80;100.00
83466;DHT22;73393;51.946;20.140;2024-02-26T04:02:47;0.80;100.00
83466;DHT22;73393;51.946;20.140;2024-02-26T04:05:13;0.80;100.00
83466;DHT22;73393;51.946;20.140;2024-02-26T04:07:39;0.80;100.00
83466;DHT22;73393;51.946;20.140;2024-02-26T04:10:11;0.70;100.00
83466;DHT22;73393;51.946;20.140;2024-02-26T04:12:43;0.70;100.00
83466;DHT22;73393;51.946;20.140;2024-02-26T04:15:10;0.60;100.00
83466;DHT22;73393;51.946;20.140;2024-02-26T04:17:36;0.60;100.00
83466;DHT22;73393;51.946;20.140;2024-02-26T04:20:03;0.60;100.00
83466;DHT22;73393;51.946;20.140;2024-02-26T04:22:28;0.60;100.00
83466;DHT22;73393;51.946;20.140;2024-02-26T04:24:54;0.70;100.00
83466;DHT22;73393;51.946;20.140;2024-02-26T04:27:20;0.60;100.00
83466;DHT22;73393;51.946;20.140;2024-02-26T04:29:45;0.70;100.00
83466;DHT22;73393;51.946;20.140;2024-02-26T04:32:11;0.70;100.00
83466;DHT22;73393;51.946;20.140;2024-02-26T04:34:36;0.60;100.00
83466;DHT22;73393;51.946;20.140;2024-02-26T04:37:02;0.60;100.00
83466;DHT22;73393;51.946;20.140;2024-02-26T04:39:28;0.60;100.00
83466;DHT22;73393;51.946;20.140;2024-02-26T04:41:53;0.60;100.00
83466;DHT22;73393;51.946;20.140;2024-02-26T04:44:19;0.60;100.00
83466;DHT22;73393;51.946;20.140;2024-02-26T04:46:44;0.60;100.00
83466;DHT22;73393;51.946;20.140;2024-02-26T04:49:10;0.60;100.00
83466;DHT22;73393;51.946;20.140;2024-02-26T04:51:36;0.60;100.00
83466;DHT22;73393;51.946;20.140;2024-02-26T04:54:02;0.50;100.00
83466;DHT22;73393;51.946;20.140;2024-02-26T04:56:28;0.50;100.00
83466;DHT22;73393;51.946;20.140;2024-02-26T04:58:55;0.50;100.00
83466;DHT22;73393;51.946;20.140;2024-02-26T05:01:20;0.50;100.00
83466;DHT22;73393;51.946;20.140;2024-02-26T05:03:46;0.40;100.00
83466;DHT22;73393;51.946;20.140;2024-02-26T05:06:11;0.40;100.00
83466;DHT22;73393;51.946;20.140;2024-02-26T05:08:38;0.30;100.00
83466;DHT22;73393;51.946;20.140;2024-02-26T05:11:04;0.30;100.00
83466;DHT22;73393;51.946;20.140;2024-02-26T05:13:30;0.30;100.00
83466;DHT22;73393;51.946;20.140;2024-02-26T05:15:55;0.30;100.00
83466;DHT22;73393;51.946;20.140;2024-02-26T05:18:22;0.40;100.00
83466;DHT22;73393;51.946;20.140;2024-02-26T05:20:48;0.40;100.00
83466;DHT22;73393;51.946;20.140;2024-02-26T05:23:13;0.40;100.00
83466;DHT22;73393;51.946;20.140;2024-02-26T05:25:39;0.40;100.00
83466;DHT22;73393;51.946;20.140;2024-02-26T05:28:04;0.40;100.00
83466;DHT22;73393;51.946;20.140;2024-02-26T05:30:30;0.40;100.00
83466;DHT22;73393;51.946;20.140;2024-02-26T05:32:55;0.40;100.00
83466;DHT22;73393;51.946;20.140;2024-02-26T05:35:21;0.40;100.00
83466;DHT22;73393;51.946;20.140;2024-02-26T05:37:47;0.40;100.00
83466;DHT22;73393;51.946;20.140;2024-02-26T05:40:12;0.50;100.00
83466;DHT22;73393;51.946;20.140;2024-02-26T05:42:38;0.50;100.00
83466;DHT22;73393;51.946;20.140;2024-02-26T05:45:04;0.50;100.00
83466;DHT22;73393;51.946;20.140;2024-02-26T05:47:34;0.50;100.00
83466;DHT22;73393;51.946;20.140;2024-02-26T05:50:00;0.50;100.00
83466;DHT22;73393;51.946;20.140;2024-02-26T05:52:26;0.50;100.00
83466;DHT22;73393;51.946;20.140;2024-02-26T05:54:53;0.50;100.00
83466;DHT22;73393;51.946;20.140;2024-02-26T05:57:19;0.60;100.00
83466;DHT22;73393;51.946;20.140;2024-02-26T05:59:44;0.60;100.00
83466;DHT22;73393;51.946;20.140;2024-02-26T06:02:10;0.60;100.00
83466;DHT22;73393;51.946;20.140;2024-02-26T06:04:36;0.60;100.00
83466;DHT22;73393;51.946;20.140;2024-02-26T06:07:01;0.60;100.00
83466;DHT22;73393;51.946;20.140;2024-02-26T06:09:27;0.60;100.00
83466;DHT22;73393;51.946;20.140;2024-02-26T06:11:53;0.60;100.00
83466;DHT22;73393;51.946;20.140;2024-02-26T06:14:19;0.80;100.00
83466;DHT22;73393;51.946;20.140;2024-02-26T06:16:46;0.80;100.00
83466;DHT22;73393;51.946;20.140;2024-02-26T06:19:11;0.90;100.00
83466;DHT22;73393;51.946;20.140;2024-02-26T06:21:37;0.90;100.00
83466;DHT22;73393;51.946;20.140;2024-02-26T06:24:02;1.00;100.00
83466;DHT22;73393;51.946;20.140;2024-02-26T06:26:28;1.10;100.00
83466;DHT22;73393;51.946;20.140;2024-02-26T06:28:54;1.20;100.00
83466;DHT22;73393;51.946;20.140;2024-02-26T06:31:21;1.30;100.00
83466;DHT22;73393;51.946;20.140;2024-02-26T06:33:48;1.40;100.00
83466;DHT22;73393;51.946;20.140;2024-02-26T06:36:15;1.50;100.00
83466;DHT22;73393;51.946;20.140;2024-02-26T06:38:40;1.60;100.00
83466;DHT22;73393;51.946;20.140;2024-02-26T06:41:06;1.70;100.00
83466;DHT22;73393;51.946;20.140;2024-02-26T06:43:31;1.80;100.00
83466;DHT22;73393;51.946;20.140;2024-02-26T06:45:57;2.00;100.00
83466;DHT22;73393;51.946;20.140;2024-02-26T06:48:24;2.10;100.00
83466;DHT22;73393;51.946;20.140;2024-02-26T06:50:50;2.30;100.00
83466;DHT22;73393;51.946;20.140;2024-02-26T06:53:15;2.40;100.00
83466;DHT22;73393;51.946;20.140;2024-02-26T06:55:42;2.50;100.00
83466;DHT22;73393;51.946;20.140;2024-02-26T06:58:08;2.70;100.00
83466;DHT22;73393;51.946;20.140;2024-02-26T07:00:34;2.80;100.00
83466;DHT22;73393;51.946;20.140;2024-02-26T07:02:59;3.10;100.00
83466;DHT22;73393;51.946;20.140;2024-02-26T07:05:25;3.20;100.00
83466;DHT22;73393;51.946;20.140;2024-02-26T07:07:51;3.40;100.00
83466;DHT22;73393;51.946;20.140;2024-02-26T07:10:17;3.60;100.00
83466;DHT22;73393;51.946;20.140;2024-02-26T07:12:44;3.90;100.00
83466;DHT22;73393;51.946;20.140;2024-02-26T07:15:09;4.00;100.00
83466;DHT22;73393;51.946;20.140;2024-02-26T07:17:35;4.20;100.00
83466;DHT22;73393;51.946;20.140;2024-02-26T07:20:02;4.40;100.00
83466;DHT22;73393;51.946;20.140;2024-02-26T07:22:30;4.60;100.00
83466;DHT22;73393;51.946;20.140;2024-02-26T07:24:56;4.60;100.00
83466;DHT22;73393;51.946;20.140;2024-02-26T07:27:22;4.80;100.00
83466;DHT22;73393;51.946;20.140;2024-02-26T07:29:48;4.90;100.00
83466;DHT22;73393;51.946;20.140;2024-02-26T07:32:13;5.10;100.00
83466;DHT22;73393;51.946;20.140;2024-02-26T07:34:39;5.20;100.00
83466;DHT22;73393;51.946;20.140;2024-02-26T07:37:16;5.30;100.00
83466;DHT22;73393;51.946;20.140;2024-02-26T07:39:41;5.50;100.00
83466;DHT22;73393;51.946;20.140;2024-02-26T07:42:07;5.50;100.00
83466;DHT22;73393;51.946;20.140;2024-02-26T07:44:33;5.70;100.00
83466;DHT22;73393;51.946;20.140;2024-02-26T07:46:58;5.80;99.50
83466;DHT22;73393;51.946;20.140;2024-02-26T07:49:24;5.90;99.40
83466;DHT22;73393;51.946;20.140;2024-02-26T07:51:49;6.10;98.90
83466;DHT22;73393;51.946;20.140;2024-02-26T07:54:15;6.20;98.80
83466;DHT22;73393;51.946;20.140;2024-02-26T07:56:41;6.30;98.10
83466;DHT22;73393;51.946;20.140;2024-02-26T07:59:07;6.50;97.60
83466;DHT22;73393;51.946;20.140;2024-02-26T08:01:33;6.60;97.10
83466;DHT22;73393;51.946;20.140;2024-02-26T08:03:59;6.70;96.30
83466;DHT22;73393;51.946;20.140;2024-02-26T08:06:25;6.90;96.50
83466;DHT22;73393;51.946;20.140;2024-02-26T08:08:51;7.00;95.80
83466;DHT22;73393;51.946;20.140;2024-02-26T08:11:16;7.10;95.20
83466;DHT22;73393;51.946;20.140;2024-02-26T08:13:42;7.20;95.80
83466;DHT22;73393;51.946;20.140;2024-02-26T08:16:08;7.30;95.40
83466;DHT22;73393;51.946;20.140;2024-02-26T08:18:33;7.40;95.50
83466;DHT22;73393;51.946;20.140;2024-02-26T08:20:59;7.50;95.20
83466;DHT22;73393;51.946;20.140;2024-02-26T08:23:24;7.70;94.30
83466;DHT22;73393;51.946;20.140;2024-02-26T08:25:51;7.80;94.40
83466;DHT22;73393;51.946;20.140;2024-02-26T08:28:17;7.80;94.30
83466;DHT22;73393;51.946;20.140;2024-02-26T08:30:43;8.00;93.60
83466;DHT22;73393;51.946;20.140;2024-02-26T08:33:09;8.10;93.40
83466;DHT22;73393;51.946;20.140;2024-02-26T08:35:35;8.20;93.30
83466;DHT22;73393;51.946;20.140;2024-02-26T08:38:01;8.30;92.20
83466;DHT22;73393;51.946;20.140;2024-02-26T08:40:27;8.40;92.10
83466;DHT22;73393;51.946;20.140;2024-02-26T08:42:52;8.50;90.90
83466;DHT22;73393;51.946;20.140;2024-02-26T08:45:19;8.70;90.10
83466;DHT22;73393;51.946;20.140;2024-02-26T08:47:45;8.80;89.70
83466;DHT22;73393;51.946;20.140;2024-02-26T08:50:11;8.90;88.70
83466;DHT22;73393;51.946;20.140;2024-02-26T08:52:38;9.00;88.40
83466;DHT22;73393;51.946;20.140;2024-02-26T08:55:04;9.10;86.70
83466;DHT22;73393;51.946;20.140;2024-02-26T08:57:31;9.20;86.60
83466;DHT22;73393;51.946;20.140;2024-02-26T08:59:59;9.30;86.20
83466;DHT22;73393;51.946;20.140;2024-02-26T09:02:26;9.40;86.10
83466;DHT22;73393;51.946;20.140;2024-02-26T09:04:51;9.60;85.60
83466;DHT22;73393;51.946;20.140;2024-02-26T09:07:19;9.60;84.90
83466;DHT22;73393;51.946;20.140;2024-02-26T09:09:44;9.80;83.80
83466;DHT22;73393;51.946;20.140;2024-02-26T09:12:10;9.80;83.50
83466;DHT22;73393;51.946;20.140;2024-02-26T09:14:35;10.00;82.00
83466;DHT22;73393;51.946;20.140;2024-02-26T09:17:01;10.10;81.70
83466;DHT22;73393;51.946;20.140;2024-02-26T09:19:26;10.20;82.10
83466;DHT22;73393;51.946;20.140;2024-02-26T09:21:53;10.30;81.60
83466;DHT22;73393;51.946;20.140;2024-02-26T09:24:23;10.40;81.50
83466;DHT22;73393;51.946;20.140;2024-02-26T09:26:48;10.40;81.00
83466;DHT22;73393;51.946;20.140;2024-02-26T09:29:14;10.40;80.90
83466;DHT22;73393;51.946;20.140;2024-02-26T09:31:40;10.50;80.90
83466;DHT22;73393;51.946;20.140;2024-02-26T09:34:07;10.60;80.30
83466;DHT22;73393;51.946;20.140;2024-02-26T09:36:34;10.70;80.00
83466;DHT22;73393;51.946;20.140;2024-02-26T09:38:59;10.70;79.20
83466;DHT22;73393;51.946;20.140;2024-02-26T09:41:28;10.80;79.00
83466;DHT22;73393;51.946;20.140;2024-02-26T09:43:56;10.90;78.80
83466;DHT22;73393;51.946;20.140;2024-02-26T09:46:25;10.90;78.70
83466;DHT22;73393;51.946;20.140;2024-02-26T09:48:51;11.00;76.70
83466;DHT22;73393;51.946;20.140;2024-02-26T09:51:17;11.10;77.00
83466;DHT22;73393;51.946;20.140;2024-02-26T09:53:44;11.10;77.20
83466;DHT22;73393;51.946;20.140;2024-02-26T09:56:12;11.10;77.20
83466;DHT22;73393;51.946;20.140;2024-02-26T09:58:39;11.20;77.10
83466;DHT22;73393;51.946;20.140;2024-02-26T10:01:11;11.30;75.90
83466;DHT22;73393;51.946;20.140;2024-02-26T10:03:41;11.30;76.50
83466;DHT22;73393;51.946;20.140;2024-02-26T10:06:08;11.40;75.80
83466;DHT22;73393;51.946;20.140;2024-02-26T10:08:35;11.50;75.40
83466;DHT22;73393;51.946;20.140;2024-02-26T10:11:00;11.60;74.90
83466;DHT22;73393;51.946;20.140;2024-02-26T10:13:27;11.70;74.70
83466;DHT22;73393;51.946;20.140;2024-02-26T10:15:53;11.70;73.60
83466;DHT22;73393;51.946;20.140;2024-02-26T10:18:18;11.70;73.30
83466;DHT22;73393;51.946;20.140;2024-02-26T10:21:05;11.80;73.30
83466;DHT22;73393;51.946;20.140;2024-02-26T10:23:30;12.00;72.50
83466;DHT22;73393;51.946;20.140;2024-02-26T10:25:56;12.00;70.60
83466;DHT22;73393;51.946;20.140;2024-02-26T10:28:22;12.10;70.50
83466;DHT22;73393;51.946;20.140;2024-02-26T10:30:48;12.10;69.80
83466;DHT22;73393;51.946;20.140;2024-02-26T10:33:14;12.20;69.50
83466;DHT22;73393;51.946;20.140;2024-02-26T10:35:45;12.30;71.30
83466;DHT22;73393;51.946;20.140;2024-02-26T10:38:10;12.40;70.80
83466;DHT22;73393;51.946;20.140;2024-02-26T10:40:37;12.50;70.20
83466;DHT22;73393;51.946;20.140;2024-02-26T10:43:02;12.60;68.20
83466;DHT22;73393;51.946;20.140;2024-02-26T10:45:28;12.70;68.40
83466;DHT22;73393;51.946;20.140;2024-02-26T10:47:54;12.70;67.70
83466;DHT22;73393;51.946;20.140;2024-02-26T10:50:20;12.80;67.80
83466;DHT22;73393;51.946;20.140;2024-02-26T10:52:45;12.80;67.20
83466;DHT22;73393;51.946;20.140;2024-02-26T10:55:16;12.80;68.40
83466;DHT22;73393;51.946;20.140;2024-02-26T10:57:45;12.90;67.60
83466;DHT22;73393;51.946;20.140;2024-02-26T11:00:14;12.90;67.30
83466;DHT22;73393;51.946;20.140;2024-02-26T11:02:41;12.90;67.20
83466;DHT22;73393;51.946;20.140;2024-02-26T11:05:07;13.00;67.50
83466;DHT22;73393;51.946;20.140;2024-02-26T11:07:36;12.90;67.50
83466;DHT22;73393;51.946;20.140;2024-02-26T11:10:04;12.90;66.70
83466;DHT22;73393;51.946;20.140;2024-02-26T11:12:32;12.90;67.70
83466;DHT22;73393;51.946;20.140;2024-02-26T11:15:00;13.00;68.50
83466;DHT22;73393;51.946;20.140;2024-02-26T11:17:28;13.00;67.00
83466;DHT22;73393;51.946;20.140;2024-02-26T11:19:58;12.90;67.00
83466;DHT22;73393;51.946;20.140;2024-02-26T11:22:27;13.00;67.10
83466;DHT22;73393;51.946;20.140;2024-02-26T11:24:53;13.00;68.20
83466;DHT22;73393;51.946;20.140;2024-02-26T11:27:38;13.10;68.40
83466;DHT22;73393;51.946;20.140;2024-02-26T11:30:08;13.20;69.10
83466;DHT22;73393;51.946;20.140;2024-02-26T11:32:34;13.10;69.00
83466;DHT22;73393;51.946;20.140;2024-02-26T11:35:00;13.20;69.90
83466;DHT22;73393;51.946;20.140;2024-02-26T11:37:27;13.20;70.00
83466;DHT22;73393;51.946;20.140;2024-02-26T11:39:52;13.20;69.80
83466;DHT22;73393;51.946;20.140;2024-02-26T11:42:23;13.20;69.60
83466;DHT22;73393;51.946;20.140;2024-02-26T11:44:49;13.20;69.40
83466;DHT22;73393;51.946;20.140;2024-02-26T11:47:20;13.30;69.30
83466;DHT22;73393;51.946;20.140;2024-02-26T11:49:46;13.30;69.90
83466;DHT22;73393;51.946;20.140;2024-02-26T11:52:13;13.30;69.70
83466;DHT22;73393;51.946;20.140;2024-02-26T11:54:49;13.40;69.00
83466;DHT22;73393;51.946;20.140;2024-02-26T12:02:52;13.60;68.00
83466;DHT22;73393;51.946;20.140;2024-02-26T12:05:26;13.60;68.40
83466;DHT22;73393;51.946;20.140;2024-02-26T12:08:01;13.70;67.70
83466;DHT22;73393;51.946;20.140;2024-02-26T12:10:31;13.70;68.30
83466;DHT22;73393;51.946;20.140;2024-02-26T12:13:05;13.70;68.20
83466;DHT22;73393;51.946;20.140;2024-02-26T12:15:54;13.80;67.70
83466;DHT22;73393;51.946;20.140;2024-02-26T12:18:21;13.80;69.30
83466;DHT22;73393;51.946;20.140;2024-02-26T12:20:57;13.80;69.40
83466;DHT22;73393;51.946;20.140;2024-02-26T12:23:23;13.70;70.00
83466;DHT22;73393;51.946;20.140;2024-02-26T12:25:49;13.60;70.70
83466;DHT22;73393;51.946;20.140;2024-02-26T12:28:15;13.60;70.80
83466;DHT22;73393;51.946;20.140;2024-02-26T12:30:40;13.60;70.90
83466;DHT22;73393;51.946;20.140;2024-02-26T12:33:06;13.60;70.60
83466;DHT22;73393;51.946;20.140;2024-02-26T12:35:34;13.50;69.60
83466;DHT22;73393;51.946;20.140;2024-02-26T12:38:00;13.50;70.80
83466;DHT22;73393;51.946;20.140;2024-02-26T12:40:26;13.60;70.80
83466;DHT22;73393;51.946;20.140;2024-02-26T12:42:54;13.60;70.50
83466;DHT22;73393;51.946;20.140;2024-02-26T12:45:20;13.60;69.30
83466;DHT22;73393;51.946;20.140;2024-02-26T12:47:46;13.60;71.00
83466;DHT22;73393;51.946;20.140;2024-02-26T12:50:13;13.60;69.90
83466;DHT22;73393;51.946;20.140;2024-02-26T12:52:48;13.70;70.40
83466;DHT22;73393;51.946;20.140;2024-02-26T12:55:19;13.70;68.00
83466;DHT22;73393;51.946;20.140;2024-02-26T12:57:45;13.70;69.00
83466;DHT22;73393;51.946;20.140;2024-02-26T13:00:13;13.70;68.70
83466;DHT22;73393;51.946;20.140;2024-02-26T13:02:41;13.70;68.30
83466;DHT22;73393;51.946;20.140;2024-02-26T13:05:10;13.60;68.00
83466;DHT22;73393;51.946;20.140;2024-02-26T13:07:43;13.70;68.20
83466;DHT22;73393;51.946;20.140;2024-02-26T13:10:10;13.70;67.70
83466;DHT22;73393;51.946;20.140;2024-02-26T13:12:48;13.60;68.30
83466;DHT22;73393;51.946;20.140;2024-02-26T13:15:20;13.60;68.10
83466;DHT22;73393;51.946;20.140;2024-02-26T13:17:47;13.70;68.50
83466;DHT22;73393;51.946;20.140;2024-02-26T13:20:24;13.70;68.70
83466;DHT22;73393;51.946;20.140;2024-02-26T13:22:49;13.80;69.10
83466;DHT22;73393;51.946;20.140;2024-02-26T13:25:20;13.80;68.90
83466;DHT22;73393;51.946;20.140;2024-02-26T13:27:46;13.70;69.00
83466;DHT22;73393;51.946;20.140;2024-02-26T13:30:12;13.70;68.20
83466;DHT22;73393;51.946;20.140;2024-02-26T13:32:39;13.70;68.60
83466;DHT22;73393;51.946;20.140;2024-02-26T13:35:09;13.70;68.60
83466;DHT22;73393;51.946;20.140;2024-02-26T13:37:36;13.60;67.70
83466;DHT22;73393;51.946;20.140;2024-02-26T13:40:09;13.60;68.20
83466;DHT22;73393;51.946;20.140;2024-02-26T13:42:36;13.60;67.90
83466;DHT22;73393;51.946;20.140;2024-02-26T13:45:03;13.60;68.00
83466;DHT22;73393;51.946;20.140;2024-02-26T13:47:31;13.50;68.90
83466;DHT22;73393;51.946;20.140;2024-02-26T13:49:56;13.50;69.30
83466;DHT22;73393;51.946;20.140;2024-02-26T13:52:22;13.50;69.60
83466;DHT22;73393;51.946;20.140;2024-02-26T13:54:48;13.60;67.90
83466;DHT22;73393;51.946;20.140;2024-02-26T13:57:14;13.50;68.00
83466;DHT22;73393;51.946;20.140;2024-02-26T13:59:39;13.50;68.80
83466;DHT22;73393;51.946;20.140;2024-02-26T14:02:10;13.60;68.90
83466;DHT22;73393;51.946;20.140;2024-02-26T14:04:37;13.60;69.00
83466;DHT22;73393;51.946;20.140;2024-02-26T14:07:03;13.60;68.80
83466;DHT22;73393;51.946;20.140;2024-02-26T14:09:29;13.60;68.50
83466;DHT22;73393;51.946;20.140;2024-02-26T14:11:54;13.60;68.50
83466;DHT22;73393;51.946;20.140;2024-02-26T14:14:20;13.70;67.40
83466;DHT22;73393;51.946;20.140;2024-02-26T14:16:46;13.80;66.60
83466;DHT22;73393;51.946;20.140;2024-02-26T14:19:11;13.70;66.70
83466;DHT22;73393;51.946;20.140;2024-02-26T14:21:37;13.70;67.20
83466;DHT22;73393;51.946;20.140;2024-02-26T14:24:03;13.60;67.60
83466;DHT22;73393;51.946;20.140;2024-02-26T14:26:29;13.50;68.50
83466;DHT22;73393;51.946;20.140;2024-02-26T14:28:54;13.40;69.00
83466;DHT22;73393;51.946;20.140;2024-02-26T14:31:21;13.40;68.10
83466;DHT22;73393;51.946;20.140;2024-02-26T14:33:47;13.30;68.30
83466;DHT22;73393;51.946;20.140;2024-02-26T14:36:13;13.30;68.90
83466;DHT22;73393;51.946;20.140;2024-02-26T14:38:39;13.30;69.20
83466;DHT22;73393;51.946;20.140;2024-02-26T14:41:05;13.30;69.20
83466;DHT22;73393;51.946;20.140;2024-02-26T14:43:31;13.20;69.70
83466;DHT22;73393;51.946;20.140;2024-02-26T14:45:58;13.20;70.00
83466;DHT22;73393;51.946;20.140;2024-02-26T14:48:23;13.10;70.40
83466;DHT22;73393;51.946;20.140;2024-02-26T14:50:49;13.10;70.60
83466;DHT22;73393;51.946;20.140;2024-02-26T14:53:16;13.00;71.00
83466;DHT22;73393;51.946;20.140;2024-02-26T14:55:42;13.00;71.10
83466;DHT22;73393;51.946;20.140;2024-02-26T14:58:08;13.00;71.40
83466;DHT22;73393;51.946;20.140;2024-02-26T15:00:36;13.00;71.40
83466;DHT22;73393;51.946;20.140;2024-02-26T15:03:02;13.00;71.90
83466;DHT22;73393;51.946;20.140;2024-02-26T15:05:28;13.00;72.30
83466;DHT22;73393;51.946;20.140;2024-02-26T15:07:54;13.00;71.40
83466;DHT22;73393;51.946;20.140;2024-02-26T15:10:20;13.00;71.00
83466;DHT22;73393;51.946;20.140;2024-02-26T15:12:45;12.90;71.40
83466;DHT22;73393;51.946;20.140;2024-02-26T15:15:11;12.90;71.50
83466;DHT22;73393;51.946;20.140;2024-02-26T15:17:37;12.80;71.50
83466;DHT22;73393;51.946;20.140;2024-02-26T15:20:03;12.80;71.90
83466;DHT22;73393;51.946;20.140;2024-02-26T15:22:28;12.70;72.20